createdAt,value
2019-04-29T00:04:05.952Z,17.57
2019-04-29T00:09:15.591Z,17.13
2019-04-29T00:14:21.330Z,18.90
2019-04-29T00:19:28.719Z,18.30
2019-04-29T00:24:35.647Z,18.27
2019-04-29T00:29:41.411Z,17.37
2019-04-29T00:34:47.452Z,17.43
2019-04-29T00:40:09.903Z,17.47
2019-04-29T00:45:18.478Z,17.30
2019-04-29T00:50:24.227Z,16.47
2019-04-29T00:55:31.663Z,16.63
2019-04-29T01:00:39.932Z,16.70
2019-04-29T01:05:45.762Z,16.97
2019-04-29T01:10:51.445Z,17.47
2019-04-29T01:15:57.040Z,17.20
2019-04-29T01:21:02.559Z,16.93
2019-04-29T01:26:12.652Z,16.07
2019-04-29T01:31:19.877Z,17.80
2019-04-29T01:36:27.246Z,16.27
2019-04-29T01:41:37.649Z,15.67
2019-04-29T01:46:43.380Z,16.73
2019-04-29T01:51:49.138Z,17.47
2019-04-29T01:56:54.737Z,17.07
2019-04-29T02:02:00.356Z,18.47
2019-04-29T02:07:06.024Z,18.73
2019-04-29T02:12:11.702Z,17.77
2019-04-29T02:17:17.524Z,17.33
2019-04-29T02:22:27.613Z,17.23
2019-04-29T02:27:33.243Z,19.13
2019-04-29T02:32:38.906Z,17.83
2019-04-29T02:37:45.342Z,17.93
2019-04-29T02:42:52.762Z,18.10
2019-04-29T02:47:58.281Z,18.30
2019-04-29T02:53:04.040Z,20.93
2019-04-29T02:58:23.510Z,18.57
2019-04-29T03:03:30.940Z,19.63
2019-04-29T03:08:36.501Z,19.90
2019-04-29T03:13:42.853Z,20.87
2019-04-29T03:18:50.706Z,21.90
2019-04-29T03:23:56.331Z,20.57
2019-04-29T03:29:01.912Z,22.90
2019-04-29T03:34:07.597Z,25.77
2019-04-29T03:39:13.252Z,26.93
2019-04-29T03:44:18.904Z,23.07
2019-04-29T03:49:24.536Z,22.87
2019-04-29T03:54:30.181Z,24.97
2019-04-29T03:59:35.735Z,20.83
2019-04-29T04:04:55.086Z,17.53
2019-04-29T04:10:00.718Z,17.27
2019-04-29T04:15:08.110Z,22.70
2019-04-29T04:20:14.638Z,17.20
2019-04-29T04:25:20.410Z,18.10
2019-04-29T04:30:26.282Z,18.27
2019-04-29T04:35:31.901Z,18.63
2019-04-29T04:40:42.092Z,18.50
2019-04-29T04:45:47.843Z,19.03
2019-04-29T04:50:53.636Z,21.13
2019-04-29T04:56:01.277Z,19.03
2019-04-29T05:01:07.025Z,18.00
2019-04-29T05:06:12.898Z,22.23
2019-04-29T05:11:18.832Z,23.03
2019-04-29T05:16:24.618Z,22.33
2019-04-29T05:21:30.333Z,24.00
2019-04-29T05:26:35.967Z,26.63
2019-04-29T05:31:41.852Z,25.50
2019-04-29T05:36:55.591Z,26.97
2019-04-29T05:42:01.777Z,29.27
2019-04-29T05:47:09.175Z,30.17
2019-04-29T05:52:19.443Z,30.03
2019-04-29T05:57:26.985Z,26.37
2019-04-29T06:02:35.112Z,29.63
2019-04-29T06:07:40.233Z,29.43
2019-04-29T06:12:46.138Z,26.27
2019-04-29T06:17:52.112Z,31.30
2019-04-29T06:22:57.882Z,30.10
2019-04-29T06:28:03.937Z,32.67
2019-04-29T06:33:10.647Z,30.30
2019-04-29T06:38:16.514Z,33.83
2019-04-29T06:43:24.692Z,35.43
2019-04-29T06:48:29.796Z,31.00
2019-04-29T06:53:35.654Z,23.77
2019-04-29T06:58:41.429Z,21.63
2019-04-29T07:03:47.291Z,19.47
2019-04-29T07:08:53.251Z,18.57
2019-04-29T07:13:59.368Z,17.40
2019-04-29T07:19:05.326Z,17.57
2019-04-29T07:24:11.298Z,16.50
2019-04-29T07:29:17.795Z,18.57
2019-04-29T07:34:28.885Z,16.67
2019-04-29T07:39:33.505Z,17.70
2019-04-29T07:44:44.296Z,18.17
2019-04-29T07:49:51.487Z,19.30
2019-04-29T07:54:56.317Z,17.23
2019-04-29T08:00:02.098Z,18.53
2019-04-29T08:05:09.407Z,18.30
2019-04-29T08:10:23.451Z,14.63
2019-04-29T08:15:22.956Z,12.87
2019-04-29T08:20:28.845Z,14.53
2019-04-29T08:25:34.738Z,15.37
2019-04-29T08:30:41.911Z,13.60
2019-04-29T08:35:47.952Z,12.67
2019-04-29T08:40:54.084Z,12.20
2019-04-29T08:46:13.427Z,10.20
2019-04-29T08:51:19.345Z,11.73
2019-04-29T08:56:25.125Z,11.67
2019-04-29T09:01:34.182Z,9.33
2019-04-29T09:06:38.701Z,10.20
2019-04-29T09:11:47.940Z,9.63
2019-04-29T09:16:52.487Z,9.13
2019-04-29T09:21:59.901Z,11.20
2019-04-29T09:27:19.187Z,9.93
2019-04-29T09:32:25.459Z,8.07
2019-04-29T09:37:31.334Z,7.93
2019-04-29T09:42:45.532Z,8.83
2019-04-29T09:47:49.013Z,9.70
2019-04-29T09:52:54.877Z,9.17
2019-04-29T09:58:00.707Z,10.70
2019-04-29T10:03:23.329Z,10.30
2019-04-29T10:08:29.246Z,7.30
2019-04-29T10:13:35.062Z,9.47
2019-04-29T10:18:42.599Z,8.33
2019-04-29T10:23:48.474Z,9.80
2019-04-29T10:28:55.869Z,9.37
2019-04-29T10:34:01.721Z,8.60
2019-04-29T10:39:22.744Z,8.90
2019-04-29T10:44:37.613Z,8.43
2019-04-29T10:49:53.948Z,7.43
2019-04-29T10:55:00.333Z,8.33
2019-04-29T11:00:10.347Z,6.40
2019-04-29T11:05:28.063Z,6.53
2019-04-29T11:10:33.928Z,7.20
2019-04-29T11:15:44.982Z,8.33
2019-04-29T11:20:53.846Z,7.03
2019-04-29T11:26:04.483Z,6.33
2019-04-29T11:31:13.997Z,5.77
2019-04-29T11:36:29.062Z,7.10
2019-04-29T11:41:34.925Z,7.87
2019-04-29T11:46:44.718Z,7.53
2019-04-29T11:52:08.585Z,6.43
2019-04-29T11:56:56.141Z,7.30
2019-04-29T12:02:07.751Z,7.17
2019-04-29T12:07:13.636Z,7.43
2019-04-29T12:12:20.932Z,8.00
2019-04-29T12:17:34.425Z,7.90
2019-04-29T12:22:48.514Z,8.37
2019-04-29T12:27:52.847Z,8.00
2019-04-29T12:33:01.394Z,8.70
2019-04-29T12:38:23.699Z,7.47
2019-04-29T12:43:34.395Z,6.93
2019-04-29T12:48:40.436Z,5.80
2019-04-29T12:53:46.220Z,5.00
2019-04-29T12:58:55.265Z,4.87
2019-04-29T13:04:17.584Z,4.40
2019-04-29T13:09:42.325Z,3.70
2019-04-29T13:15:07.843Z,4.80
2019-04-29T13:20:13.530Z,3.90
2019-04-29T13:25:19.753Z,3.77
2019-04-29T13:30:26.577Z,3.70
2019-04-29T13:35:32.410Z,4.43
2019-04-29T13:40:39.486Z,4.57
2019-04-29T13:45:47.022Z,3.53
2019-04-29T13:51:06.452Z,3.13
2019-04-29T13:56:32.263Z,3.43
2019-04-29T14:01:29.851Z,2.93
2019-04-29T14:06:29.903Z,3.10
2019-04-29T14:11:35.707Z,3.20
2019-04-29T14:16:43.160Z,2.73
2019-04-29T14:21:48.851Z,3.70
2019-04-29T14:26:54.536Z,2.90
2019-04-29T14:32:01.390Z,3.50
2019-04-29T14:37:20.036Z,2.90
2019-04-29T14:42:17.377Z,3.50
2019-04-29T14:47:24.697Z,3.53
2019-04-29T14:52:30.824Z,2.87
2019-04-29T14:57:36.715Z,2.80
2019-04-29T15:02:42.538Z,3.00
2019-04-29T15:07:48.526Z,3.23
2019-04-29T15:13:01.506Z,3.10
2019-04-29T15:18:15.850Z,2.93
2019-04-29T15:23:28.488Z,2.57
2019-04-29T15:28:25.315Z,2.67
2019-04-29T15:33:34.664Z,2.73
2019-04-29T15:38:38.719Z,2.42
2019-04-29T15:43:47.632Z,2.20
2019-04-29T15:48:53.346Z,2.37
2019-04-29T15:53:59.025Z,3.00
2019-04-29T15:59:08.817Z,3.00
2019-04-29T16:04:13.770Z,2.77
2019-04-29T16:09:23.688Z,2.83
2019-04-29T16:14:28.537Z,3.40
2019-04-29T16:19:34.309Z,3.33
2019-04-29T16:24:40.138Z,3.23
2019-04-29T16:29:51.575Z,2.37
2019-04-29T16:34:54.956Z,2.97
2019-04-29T16:40:01.334Z,2.30
2019-04-29T16:45:12.022Z,2.57
2019-04-29T16:50:16.397Z,3.00
2019-04-29T16:55:22.130Z,3.30
2019-04-29T17:00:29.484Z,3.20
2019-04-29T17:05:35.274Z,3.00
2019-04-29T17:10:46.016Z,3.60
2019-04-29T17:15:52.575Z,3.40
2019-04-29T17:21:04.749Z,3.07
2019-04-29T17:26:08.042Z,3.73
2019-04-29T17:31:16.494Z,4.03
2019-04-29T17:36:25.830Z,3.43
2019-04-29T17:41:31.911Z,3.33
2019-04-29T17:46:48.531Z,3.37
2019-04-29T17:52:01.479Z,3.80
2019-04-29T17:57:25.116Z,3.20
2019-04-29T18:02:30.617Z,3.87
2019-04-29T18:07:44.997Z,3.87
2019-04-29T18:12:48.559Z,3.60
2019-04-29T18:17:55.892Z,3.90
2019-04-29T18:23:15.853Z,4.13
2019-04-29T18:28:21.078Z,3.90
2019-04-29T18:33:30.256Z,3.90
2019-04-29T18:38:35.048Z,3.33
2019-04-29T18:43:41.084Z,3.43
2019-04-29T18:48:46.958Z,3.20
2019-04-29T18:53:52.875Z,3.70
2019-04-29T18:58:58.645Z,4.30
2019-04-29T19:04:10.239Z,3.70
2019-04-29T19:09:19.855Z,3.47
2019-04-29T19:14:26.848Z,3.13
2019-04-29T19:19:34.818Z,4.00
2019-04-29T19:24:38.286Z,3.90
2019-04-29T19:29:45.291Z,3.87
2019-04-29T19:34:54.927Z,4.97
2019-04-29T19:39:59.672Z,4.30
2019-04-29T19:45:13.242Z,4.13
2019-04-29T19:50:19.502Z,3.90
2019-04-29T19:55:25.547Z,3.90
2019-04-29T20:00:32.083Z,3.57
2019-04-29T20:06:07.421Z,5.07
2019-04-29T20:11:12.283Z,4.10
2019-04-29T20:16:23.058Z,4.13
2019-04-29T20:21:29.309Z,4.30
2019-04-29T20:26:35.981Z,5.07
2019-04-29T20:31:48.596Z,5.00
2019-04-29T20:36:49.680Z,4.90
2019-04-29T20:42:00.656Z,4.93
2019-04-29T20:47:19.126Z,4.50
2019-04-29T20:52:29.622Z,4.67
2019-04-29T20:57:36.021Z,5.27
2019-04-29T21:02:42.133Z,5.10
2019-04-29T21:07:49.220Z,5.00
2019-04-29T21:13:02.837Z,5.60
2019-04-29T21:18:10.274Z,4.90
2019-04-29T21:23:17.138Z,5.60
2019-04-29T21:28:22.934Z,5.47
2019-04-29T21:33:31.151Z,5.37
2019-04-29T21:38:38.047Z,5.43
2019-04-29T21:43:53.527Z,4.83
2019-04-29T21:48:57.378Z,4.63
2019-04-29T21:54:03.589Z,5.67
2019-04-29T21:59:12.277Z,5.30
2019-04-29T22:04:18.346Z,4.90
2019-04-29T22:09:35.854Z,4.57
2019-04-29T22:14:32.753Z,5.03
2019-04-29T22:19:39.425Z,4.83
2019-04-29T22:24:45.805Z,5.40
2019-04-29T22:29:51.652Z,6.10
2019-04-29T22:35:01.167Z,4.97
2019-04-29T22:40:09.988Z,4.60
2019-04-29T22:45:15.819Z,4.80
2019-04-29T22:50:21.561Z,4.80
2019-04-29T22:55:30.784Z,5.07
2019-04-29T23:00:36.257Z,4.80
2019-04-29T23:05:43.236Z,4.70
2019-04-29T23:10:49.148Z,5.50
2019-04-29T23:16:00.979Z,4.20
2019-04-29T23:21:05.238Z,4.70
2019-04-29T23:26:11.017Z,5.10
2019-04-29T23:31:16.669Z,5.00
2019-04-29T23:36:22.359Z,5.30
2019-04-29T23:41:33.102Z,5.67
2019-04-29T23:46:35.835Z,5.87
2019-04-29T23:51:41.707Z,4.80
2019-04-29T23:56:56.554Z,5.20
